Pagina principale
METAR-TAF:

METAR-TAF

Aeroporti :

Lecce, Italia

Aeroporto di Lecce-San Cataldo

latitudine: 40-14N, longitudine: 018-09E, altezza: 48 m

Osservazione

Il bollettino è stato emesso 48 minuti fa, alle 05:55 UTC
Vento 3 kt da nord-ovest
Temperature 23°C
Umidità 78%
Pressione 1005 hPa
Visibilità 10 km o più
nessuna nube inferiore a 1500 m e nessun cumulonembo

METAR: LIBN 260555Z 31003KT CAVOK 23/19 Q1005 RMK SKC VIS MIN 9999 WIND THR14 31002KT WIND THR32 /////KT BLU

Ora: 08:43 (06:43 UTC)

Previsione

Il bollettino è stato emesso 1 ora e 43 minuti fa, alle 05:00 UTC
Previsione valida dal 26 alle 06 UTC al 26 alle 15 UTC
Vento 3 kt da direzioni variabili
Visibilità 10 km o più
nessuna nube inferiore a 1500 m e nessun cumulonembo
Temporaneamente
dal 26 alle 08 UTC al 26 alle 12 UTC
Vento 10 kt da ovest
Evoluzione graduale
dal 26 alle 12 UTC al 26 alle 13 UTC
Vento 10 kt da nord

TAF: LIBN 260500Z 2606/2615 VRB03KT CAVOK TEMPO 2608/2612 27010KT BECMG 2612/2613 36010KT

Osservazioni e previsioni meteorologiche di più di 4000 aeroporti (messaggi METAR e TAF).

Le stazioni disponibili sono rappresentate dai dischi gialli e rossi sulla carta.

Puntare il mouse per vedere il nome della stazione.

Clicca sopra per visualizzare le osservazioni e previsioni meteorologiche.

Per cambiare la mappa : fare clic sui pulsanti verdi con una croce nera per ingrandire, il pulsante verde con un trattino per diminuire, o sulla freccia verde per le mappe adiacenti.


METAR-TAF: